Aktuální počasí v Česku a ve světě - METAR

Seznam meteostanic umístěných nejčasteji na letišti v ČR a ve světě

Vyhledat místa podle abecedy:
A B C D E F G H I J K L M N O P Q R S T U V W X Y Z

Filtrovat:

ID stanice:
a/nebo
Název místa (fulltext):
 
Místo (ID)Naposledy načteno 
Brussels (EBBR) 18.06.2021 07:50 UTC Zobrazit METAR
EBBR 180750Z 10006KT 060V140 CAVOK 22/20 Q1012 NOSIG
Bucharest (LRBS) 18.06.2021 08:00 UTC Zobrazit METAR
LRBS 180800Z 26005KT 9999 FEW048 20/19 Q1014 NOSIG
Budapest (LHBP) 18.06.2021 08:00 UTC Zobrazit METAR
LHBP 180800Z 11006KT CAVOK 26/16 Q1019 NOSIG
Buenos Aires (SABE) 18.06.2021 08:00 UTC Zobrazit METAR
SABE 180800Z VRB02KT 9999 SCT039 06/01 Q1029 NOSIG
Bujumbura (HBBA) 17.06.2021 07:00 UTC Zobrazit METAR
HBBA 170700Z 16002KT 6000 FEW025 BKN100 25/18 Q1016 NOSIG
Burgas (LBBG) 18.06.2021 08:00 UTC Zobrazit METAR
LBBG 180800Z 26012KT 9999 FEW015 BKN022 21/19 Q1013 NOSIG
Bydgoszcz (EPBY) 18.06.2021 08:00 UTC Zobrazit METAR
EPBY 180800Z 14011KT 110V170 CAVOK 27/10 Q1019
Cairo (HECA) 18.06.2021 08:00 UTC Zobrazit METAR
HECA 180800Z 02010KT 9999 FEW025 28/17 Q1015 NOSIG
Canberra (YSCB) 18.06.2021 08:00 UTC Zobrazit METAR
YSCB 180800Z AUTO 36004KT 9999 // OVC038 08/08 Q1009
Caracas (SVMP) Zatím nenačteno  
Cayenne (SOCA) 18.06.2021 07:00 UTC Zobrazit METAR
SOCA 180700Z AUTO 23002KT 9999 OVC002 24/24 Q1013 TEMPO 0800 FG BKN015TCU
Charlotte Amalie (TIST) 18.06.2021 07:53 UTC Zobrazit METAR
TIST 180753Z 11016KT 9SM FEW025 SCT032 28/22 A3004 RMK AO2 SLP173 T02780222
Chisinau (LUKK) 18.06.2021 08:00 UTC Zobrazit METAR
LUKK 180800Z 04011KT 9999 OVC017 20/18 Q1015 R08/190095 NOSIG
Colombo (VCBI) 18.06.2021 07:10 UTC Zobrazit METAR
VCBI 180710Z 24008KT 210V270 9999 SCT017 31/26 Q1011 NOSIG
Conakry (GUCY) 18.06.2021 08:00 UTC Zobrazit METAR
GUCY 180800Z 22004KT 9999 SCT015 SCT110 28/25 Q1015 NOSIG
Constanta (LRCK) 18.06.2021 08:00 UTC Zobrazit METAR
LRCK 180800Z 01012KT 330V030 9999 BKN031 23/16 Q1012 NOSIG
Constantine (DABC) 18.06.2021 08:00 UTC Zobrazit METAR
DABC 180800Z 29006KT 240V350 9999 SCT030 BKN100 30/10 Q1018
Copenhagen (EKCH) 17.06.2021 22:50 UTC Zobrazit METAR
EKCH 172250Z AUTO 14012KT 9999 FEW089/// 20/15 Q1014 NOSIG
Cork (EICK) 18.06.2021 08:00 UTC Zobrazit METAR
EICK 180800Z 36010KT 9999 FEW020 11/05 Q1020 NOSIG
Cotonou (DBBB) 18.06.2021 06:00 UTC Zobrazit METAR
DBBB 180600Z 24009KT 9999 SCT009 SCT011 28/25 Q1013 TEMPO BKN007
Curacao Island (TNCC) 18.06.2021 08:00 UTC Zobrazit METAR
TNCC 180800Z AUTO 13010KT 9999 FEW016 26/23 Q1012 NOSIG
Dakar (GOOY) 18.06.2021 08:00 UTC Zobrazit METAR
GOOY 180800Z 34006KT 9999 SCT011 25/23 Q1014
Damascus (OSDI) 18.06.2021 08:00 UTC Zobrazit METAR
OSDI 180800Z 26006KT CAVOK 25/11 Q1014
Debrecen (LHDC) 18.06.2021 07:45 UTC Zobrazit METAR
LHDC 180745Z AUTO 05007KT 010V110 CAVOK 27/16 Q1018 NOSIG
Delhi (VIDP) 18.06.2021 08:00 UTC Zobrazit METAR
VIDP 180800Z 10005KT 3000 HZ FEW040 SCT100 33/24 Q1001 NOSIG
Dhaka (VGZR) Zatím nenačteno  
Diego Garcia (FJDG) 18.06.2021 07:55 UTC Zobrazit METAR
FJDG 180755Z 15010KT 9999 FEW020 SCT080 BKN250 29/26 A2987 RMK SLP112 T02940259
Djibouti (HDAM) 18.06.2021 07:00 UTC Zobrazit METAR
HDAM 180700Z 07010KT 7000 HZ SKC 35/24 Q1006
Dnipropetrovs'k (UKDD) 12.08.2013 14:00 UTC Zobrazit METAR
UKDD 121400Z CAVOK 33/13 Q1012 08090070 NOSIG
Dodoma (HTDO) 18.06.2021 07:00 UTC Zobrazit METAR
HTDO 180700Z 08012KT 9999 FEW020 21/13 Q1025 NOSIG
Doha (OTBD) 18.06.2021 08:00 UTC Zobrazit METAR
OTBD 180800Z 32016KT 5000 BLDU NSC 38/17 Q0999 NOSIG
Dortmund (EDLW) 18.06.2021 07:50 UTC Zobrazit METAR
EDLW 180750Z 25004KT 200V310 CAVOK 27/20 Q1013
Dresden (EDDC) 18.06.2021 07:50 UTC Zobrazit METAR
EDDC 180750Z 16012KT CAVOK 27/13 Q1016 NOSIG
Dublin (EIDW) 18.06.2021 08:00 UTC Zobrazit METAR
EIDW 180800Z 02010KT 350V050 9999 SCT022 12/06 Q1020 NOSIG
Dubrovnik (LDDU) 18.06.2021 08:00 UTC Zobrazit METAR
LDDU 180800Z 18005KT 160V230 CAVOK 25/15 Q1018 NOSIG
Dushanbe (UTDD) Zatím nenačteno  
Dusseldorf (EDDL) 18.06.2021 07:50 UTC Zobrazit METAR
EDDL 180750Z 32004KT 270V050 CAVOK 27/20 Q1013 TEMPO SHRA
Dzaoudzi (FMCZ) 18.06.2021 08:00 UTC Zobrazit METAR
FMCZ 180800Z AUTO 18014KT CAVOK 29/20 Q1019 NOSIG
Edinburgh (EGPH) 18.06.2021 07:50 UTC Zobrazit METAR
EGPH 180750Z VRB03KT 9999 BKN031 12/07 Q1020
Eindhoven (EHEH) 18.06.2021 07:55 UTC Zobrazit METAR
EHEH 180755Z AUTO 05007KT 030V090 9999 BKN110 OVC170 22/20 Q1013 BLU NOSIG
Entebbe (HUEN) 17.06.2021 15:00 UTC Zobrazit METAR
HUEN 171500Z 16010KT 9999 FEW023 26/17 Q1017 NOSIG
Esbjerg (EKEB) 18.06.2021 07:50 UTC Zobrazit METAR
EKEB 180750Z 33007KT 7000 BKN005 16/16 Q1016
Faro (LPFR) 18.06.2021 08:00 UTC Zobrazit METAR
LPFR 180800Z 29005KT 9999 FEW015 17/14 Q1014
Florence (LIRQ) 18.06.2021 07:50 UTC Zobrazit METAR
LIRQ 180750Z 28003KT 220V020 CAVOK 24/18 Q1019
Foggia, Gino Lisa (LIBF) 18.06.2021 07:50 UTC Zobrazit METAR
LIBF 180750Z VRB02KT CAVOK 28/15 Q1017
Fort de France (TFFF) 18.06.2021 08:00 UTC Zobrazit METAR
TFFF 180800Z AUTO 10011KT 9999 FEW023 BKN140 BKN190 27/23 Q1016 TEMPO 4000 SHRA SCT018TCU
Frankfurt/ Main (EDDF) 18.06.2021 07:50 UTC Zobrazit METAR
EDDF 180750Z VRB03KT CAVOK 29/16 Q1013 NOSIG
Freetown (GFLL) 31.03.2021 13:00 UTC Zobrazit METAR
GFLL 311300Z 30010KT 8000 HZ FEW014 30/23 Q1009
Funafuti (NGFU) 17.06.2021 17:00 UTC Zobrazit METAR
NGFU 171700Z 09013KT 9999 FEW020 SCT300 29/24 Q1009
Gaborone (FBSK) 18.06.2021 08:00 UTC Zobrazit METAR
FBSK 180800Z VRB02KT CAVOK 19/M00 Q1028 NOSIG
Předchozí 1 2 3 4 5 ... 9 Další
Reklama

Reklama


Newslettter

Počasí na Váš email

Emaily jsou bez reklamy a bez spamu



Odhlásit newsletter



Kontaktujte nás

Kontaktujte Slunečno.cz

Kontaktujte provozovatele Slunecno.cz

Další české internetové stránky (nejen) o počasí najdete v katalogu TOPlist - weby o počasí nebo vyhledejte na internetu, co jste tu na Počasí Slunečno Slunečnu zatím nenašli:
Přidat mezzi oblíbené stránkyPřidat Slunečno.cz do oblíbených | Nastavit jako HOMEPAGENastavit Slunečno.cz jako HOMEPAGE

Posunout stránku nahoru Posunout stránku nahoru Posunout stránku nahoru
Reklama